Terminal Aerodrome Forecast
Issued by NWS

Home | Current Version | Previous Version | Text Only | Print | Product List | Glossary On
Versions: 1 2 3 4 5 6 7 8 9 10 11 12 13 14 15 16
938
FTUS42 KFFC 270526
TAFFTY
TAF
KFTY 270526Z 2706/2806 00000KT P6SM BKN120
     FM271500 34007KT P6SM SCT050 SCT250
     FM280200 00000KT P6SM SKC=

USA.gov is the U.S. government's official web portal to all federal, state and local government web resources and services.